KMSP/MSP METAR and TAF weather

Enter ICAO airport designator
Station Type Date Time Source
KMSP METAR 2020/07/05 03:53 UTC NOAA

KMSP 050353Z 20003KT 10SM FEW250 29/18 A3000 RMK AO2 SLP151 T02890183


Station Type Date Time Source
KMSP Decoded METAR 2020/07/05 03:53 UTC NOAA

MINNEAPOLIS-ST PAUL INTERNATIONAL , MN, United States (KMSP) 44-52N 93-13W 265M
Jul 04, 2020 - 11:53 PM EDT / 2020.07.05 0353 UTC
Wind: from the SSW (200 degrees) at 3 MPH (3 KT):0
Visibility: 10 mile(s):0
Sky conditions: mostly clear
Temperature: 84.0 F (28.9 C)
Dew Point: 64.9 F (18.3 C)
Relative Humidity: 52%
Pressure (altimeter): 30 in. Hg (1015 hPa)
ob: KMSP 050353Z 20003KT 10SM FEW250 29/18 A3000 RMK AO2 SLP151 T02890183
cycle: 4

Station Type Date Time Source
KMSP TAF 2020/07/05 02:06 UTC NOAA

TAF
AMD KMSP 050204Z 0502/0606 16004KT P6SM FEW250
FM051200 21008KT P6SM SCT070 SCT200

Example: see airport list